createdAt,value
2023-03-16T00:01:27.119Z,78.36
2023-03-16T00:03:55.093Z,78.42
2023-03-16T00:06:25.515Z,78.56
2023-03-16T00:08:58.805Z,78.35
2023-03-16T00:11:26.826Z,78.54
2023-03-16T00:13:54.749Z,78.56
2023-03-16T00:16:22.730Z,78.69
2023-03-16T00:18:50.773Z,79.11
2023-03-16T00:21:18.813Z,78.85
2023-03-16T00:23:46.858Z,79.10
2023-03-16T00:26:15.054Z,79.46
2023-03-16T00:28:43.002Z,79.68
2023-03-16T00:31:12.322Z,80.10
2023-03-16T00:33:42.892Z,80.55
2023-03-16T00:36:11.745Z,80.78
2023-03-16T00:38:45.253Z,81.08
2023-03-16T00:41:15.806Z,81.34
2023-03-16T00:43:45.354Z,81.37
2023-03-16T00:46:16.888Z,81.53
2023-03-16T00:48:47.115Z,81.95
2023-03-16T00:51:17.781Z,82.37
2023-03-16T00:53:47.091Z,82.15
2023-03-16T00:56:17.197Z,82.72
2023-03-16T00:58:45.406Z,82.27
2023-03-16T01:01:17.298Z,82.12
2023-03-16T01:03:46.132Z,82.98
2023-03-16T01:06:17.370Z,83.41
2023-03-16T01:08:45.554Z,83.52
2023-03-16T01:11:19.385Z,83.53
2023-03-16T01:13:49.824Z,83.42
2023-03-16T01:16:23.351Z,83.75
2023-03-16T01:18:52.619Z,83.75
2023-03-16T01:21:21.923Z,84.09
2023-03-16T01:23:53.753Z,84.35
2023-03-16T01:26:23.079Z,84.33
2023-03-16T01:28:51.118Z,84.59
2023-03-16T01:31:19.038Z,84.73
2023-03-16T01:33:47.021Z,84.83
2023-03-16T01:36:20.375Z,84.91
2023-03-16T01:38:55.437Z,85.10
2023-03-16T01:41:28.248Z,85.54
2023-03-16T01:43:58.282Z,85.57
2023-03-16T01:46:29.985Z,85.52
2023-03-16T01:49:08.173Z,85.55
2023-03-16T01:52:08.787Z,85.79
2023-03-16T01:54:54.388Z,85.78
2023-03-16T01:57:36.093Z,86.00
2023-03-16T02:00:20.694Z,86.25
2023-03-16T02:03:10.474Z,86.27
2023-03-16T02:06:03.101Z,86.41
2023-03-16T02:08:33.318Z,86.20
2023-03-16T02:11:01.412Z,86.27
2023-03-16T02:13:43.603Z,86.26
2023-03-16T02:16:14.589Z,86.33
2023-03-16T02:18:42.666Z,86.41
2023-03-16T02:21:41.526Z,85.80
2023-03-16T02:24:09.735Z,86.09
2023-03-16T02:27:04.520Z,85.64
2023-03-16T02:30:09.441Z,86.04
2023-03-16T02:32:47.082Z,85.83
2023-03-16T02:35:15.758Z,85.72
2023-03-16T02:37:44.082Z,85.87
2023-03-16T02:40:23.017Z,85.76
2023-03-16T02:43:19.485Z,85.83
2023-03-16T02:45:59.751Z,85.75
2023-03-16T02:48:42.670Z,86.10
2023-03-16T02:51:13.359Z,86.07
2023-03-16T02:53:41.332Z,86.29
2023-03-16T02:56:09.252Z,86.46
2023-03-16T02:58:38.485Z,86.58
2023-03-16T03:01:10.884Z,86.76
2023-03-16T03:03:40.548Z,86.79
2023-03-16T03:06:08.489Z,86.72
2023-03-16T03:08:37.940Z,86.92
2023-03-16T03:11:06.463Z,86.76
2023-03-16T03:13:38.082Z,86.91
2023-03-16T03:16:06.771Z,86.85
2023-03-16T03:18:34.924Z,86.94
2023-03-16T03:21:05.451Z,87.16
2023-03-16T03:23:35.541Z,87.19
2023-03-16T03:26:04.249Z,87.62
2023-03-16T03:28:37.670Z,87.59
2023-03-16T03:31:07.402Z,87.28
2023-03-16T03:33:35.960Z,87.40
2023-03-16T03:36:04.462Z,87.54
2023-03-16T03:38:36.063Z,87.32
2023-03-16T03:41:07.006Z,87.17
2023-03-16T03:43:38.061Z,87.37
2023-03-16T03:46:06.313Z,87.17
2023-03-16T03:48:35.099Z,87.23
2023-03-16T03:51:06.220Z,87.45
2023-03-16T03:53:34.318Z,87.10
2023-03-16T03:56:11.023Z,87.41
2023-03-16T03:58:38.961Z,87.22
2023-03-16T04:01:07.048Z,87.22
2023-03-16T04:03:36.874Z,87.36
2023-03-16T04:06:08.134Z,87.10
2023-03-16T04:08:36.053Z,87.22
2023-03-16T04:11:06.098Z,87.35
2023-03-16T04:13:34.059Z,87.58
2023-03-16T04:16:04.842Z,87.65
2023-03-16T04:18:40.220Z,87.97
2023-03-16T04:21:17.542Z,88.12
2023-03-16T04:23:49.034Z,88.11
2023-03-16T04:26:17.891Z,88.22
2023-03-16T04:28:46.226Z,88.23
2023-03-16T04:31:19.148Z,88.32
2023-03-16T04:33:47.320Z,88.06
2023-03-16T04:36:15.507Z,88.39
2023-03-16T04:38:46.633Z,88.33
2023-03-16T04:41:20.646Z,87.94
2023-03-16T04:43:57.661Z,87.97
2023-03-16T04:46:27.043Z,88.37
2023-03-16T04:48:58.410Z,88.11
2023-03-16T04:51:29.278Z,88.18
2023-03-16T04:54:07.562Z,88.45
2023-03-16T04:56:36.937Z,88.12
2023-03-16T04:59:08.757Z,88.07
2023-03-16T05:01:44.633Z,88.34
2023-03-16T05:04:19.196Z,88.20
2023-03-16T05:06:49.596Z,88.20
2023-03-16T05:09:20.617Z,88.10
2023-03-16T05:11:51.769Z,88.14
2023-03-16T05:14:22.689Z,88.08
2023-03-16T05:17:14.734Z,88.17
2023-03-16T05:19:46.674Z,87.95
2023-03-16T05:22:19.623Z,88.14
2023-03-16T05:25:09.108Z,87.69
2023-03-16T05:27:47.805Z,88.02
2023-03-16T05:30:21.378Z,87.63
2023-03-16T05:32:50.617Z,87.91
2023-03-16T05:35:18.694Z,87.70
2023-03-16T05:37:46.881Z,87.43
2023-03-16T05:40:20.384Z,87.15
2023-03-16T05:43:03.814Z,87.30
2023-03-16T05:45:32.091Z,87.30
2023-03-16T05:48:10.794Z,87.27
2023-03-16T05:50:48.230Z,87.12
2023-03-16T05:53:19.628Z,86.83
2023-03-16T05:55:53.068Z,86.50
2023-03-16T05:58:22.064Z,86.32
2023-03-16T06:00:50.673Z,86.44
2023-03-16T06:03:23.630Z,86.29
2023-03-16T06:05:57.371Z,86.19
2023-03-16T06:08:30.849Z,86.07
2023-03-16T06:11:05.735Z,85.90
2023-03-16T06:13:33.728Z,85.70
2023-03-16T06:16:03.093Z,85.45
2023-03-16T06:18:32.199Z,85.20
2023-03-16T06:21:01.022Z,85.22
2023-03-16T06:23:30.217Z,84.93
2023-03-16T06:26:01.011Z,84.83
2023-03-16T06:28:31.644Z,84.47
2023-03-16T06:30:59.627Z,84.08
2023-03-16T06:33:33.405Z,83.93
2023-03-16T06:36:01.810Z,83.57
2023-03-16T06:38:49.810Z,83.34
2023-03-16T06:41:27.193Z,83.30
2023-03-16T06:43:55.625Z,82.95
2023-03-16T06:46:23.713Z,82.73
2023-03-16T06:48:52.143Z,82.52
2023-03-16T06:51:20.545Z,82.00
2023-03-16T06:53:48.668Z,81.64
2023-03-16T06:56:16.711Z,81.34
2023-03-16T06:58:45.769Z,80.80
2023-03-16T07:01:13.715Z,80.68
2023-03-16T07:03:41.874Z,80.21
2023-03-16T07:06:18.520Z,80.10
2023-03-16T07:08:50.674Z,79.76
2023-03-16T07:11:20.509Z,79.78
2023-03-16T07:13:51.773Z,79.21
2023-03-16T07:16:28.078Z,79.05
2023-03-16T07:18:59.388Z,79.05
2023-03-16T07:21:28.754Z,78.31
2023-03-16T07:24:00.104Z,78.08
2023-03-16T07:26:36.485Z,78.12
2023-03-16T07:29:08.620Z,77.90
2023-03-16T07:31:38.433Z,77.52
2023-03-16T07:34:12.906Z,76.74
2023-03-16T07:36:54.294Z,76.32
2023-03-16T07:39:24.235Z,75.47
2023-03-16T07:41:56.106Z,74.73
2023-03-16T07:44:39.485Z,74.48
2023-03-16T07:47:13.395Z,74.03
2023-03-16T07:49:44.126Z,73.64
2023-03-16T07:52:15.693Z,73.88
2023-03-16T07:54:45.361Z,73.31
2023-03-16T07:57:14.651Z,72.99
2023-03-16T07:59:47.694Z,73.48
2023-03-16T08:02:20.031Z,72.79
2023-03-16T08:04:51.557Z,72.85
2023-03-16T08:07:20.424Z,72.78
2023-03-16T08:09:55.415Z,72.16
2023-03-16T08:12:30.562Z,72.07
2023-03-16T08:15:02.908Z,71.57
2023-03-16T08:17:34.246Z,71.17
2023-03-16T08:20:08.984Z,71.46
2023-03-16T08:22:46.237Z,71.03
2023-03-16T08:25:19.806Z,70.03
2023-03-16T08:27:58.496Z,70.62
2023-03-16T08:30:27.507Z,69.63
2023-03-16T08:33:12.767Z,69.78
2023-03-16T08:35:48.262Z,69.15
2023-03-16T08:38:19.384Z,68.70
2023-03-16T08:40:50.666Z,68.88
2023-03-16T08:43:31.354Z,68.80
2023-03-16T08:46:07.012Z,68.96
2023-03-16T08:48:48.872Z,69.06
2023-03-16T08:51:19.547Z,69.13
2023-03-16T08:53:48.083Z,68.91
2023-03-16T08:56:16.376Z,68.74
2023-03-16T08:58:50.540Z,69.20
2023-03-16T09:01:21.725Z,69.86
2023-03-16T09:03:55.142Z,69.64
2023-03-16T09:06:27.674Z,69.91
2023-03-16T09:08:59.614Z,69.67
2023-03-16T09:11:30.613Z,69.81
2023-03-16T09:14:06.923Z,69.41
2023-03-16T09:16:36.388Z,69.26
2023-03-16T09:19:05.793Z,69.38
2023-03-16T09:21:36.220Z,69.22
2023-03-16T09:24:07.626Z,68.89
2023-03-16T09:26:37.526Z,68.91
2023-03-16T09:29:08.975Z,68.58
2023-03-16T09:31:38.356Z,68.26
2023-03-16T09:34:07.155Z,68.17
2023-03-16T09:36:36.301Z,67.70
2023-03-16T09:39:04.764Z,67.02
2023-03-16T09:41:59.303Z,67.17
2023-03-16T09:45:23.135Z,66.30
2023-03-16T09:47:58.752Z,66.72
2023-03-16T09:50:47.330Z,66.54
2023-03-16T09:53:29.251Z,67.30
2023-03-16T09:56:06.570Z,66.29
2023-03-16T09:58:36.506Z,66.18
2023-03-16T10:01:32.229Z,66.56
2023-03-16T10:04:31.468Z,65.64
2023-03-16T10:07:30.486Z,65.34
2023-03-16T10:10:44.447Z,64.42
2023-03-16T10:13:32.066Z,64.41
2023-03-16T10:16:09.545Z,64.02
2023-03-16T10:18:48.538Z,63.43
2023-03-16T10:21:20.016Z,63.64
2023-03-16T10:23:53.436Z,64.08
2023-03-16T10:26:34.076Z,62.92
2023-03-16T10:29:12.839Z,63.23
2023-03-16T10:31:44.606Z,61.41
2023-03-16T10:34:13.714Z,60.52
2023-03-16T10:36:45.438Z,60.98
2023-03-16T10:39:17.799Z,61.04
2023-03-16T10:41:57.815Z,63.65
2023-03-16T10:44:30.614Z,64.82
2023-03-16T10:47:04.890Z,64.23
2023-03-16T10:49:48.820Z,63.91
2023-03-16T10:52:23.432Z,63.04
2023-03-16T10:55:02.330Z,61.39
2023-03-16T10:57:37.324Z,60.75
2023-03-16T11:00:20.675Z,58.73
2023-03-16T11:02:54.245Z,57.93
2023-03-16T11:05:31.101Z,57.91
2023-03-16T11:08:25.891Z,56.48
2023-03-16T11:10:58.847Z,57.89
2023-03-16T11:13:37.554Z,56.67
2023-03-16T11:16:26.607Z,56.63
2023-03-16T11:19:26.094Z,57.86
2023-03-16T11:22:23.338Z,56.53
2023-03-16T11:25:07.226Z,54.97
2023-03-16T11:28:16.999Z,55.72
2023-03-16T11:31:17.070Z,55.15
2023-03-16T11:34:04.421Z,54.43
2023-03-16T11:36:49.557Z,53.25
2023-03-16T11:39:37.586Z,52.21
2023-03-16T11:42:39.495Z,53.26
2023-03-16T11:45:22.852Z,53.80
2023-03-16T11:48:48.199Z,52.02
2023-03-16T11:51:48.462Z,51.32
2023-03-16T11:54:37.183Z,50.70
2023-03-16T11:57:32.807Z,50.63
2023-03-16T12:00:35.747Z,50.53
2023-03-16T12:03:17.425Z,52.18
2023-03-16T12:05:57.015Z,51.81
2023-03-16T12:08:58.807Z,52.18
2023-03-16T12:11:33.027Z,51.86
2023-03-16T12:14:28.722Z,51.14
2023-03-16T12:17:04.603Z,50.38
2023-03-16T12:19:54.378Z,50.22
2023-03-16T12:22:58.584Z,48.56
2023-03-16T12:25:38.051Z,47.37
2023-03-16T12:28:23.837Z,46.79
2023-03-16T12:31:14.165Z,46.68
2023-03-16T12:34:36.809Z,45.59
2023-03-16T12:37:35.986Z,45.18
2023-03-16T12:40:33.715Z,46.41
2023-03-16T12:43:35.592Z,42.02
2023-03-16T12:46:14.165Z,42.97
2023-03-16T12:49:00.282Z,44.63
2023-03-16T12:51:41.415Z,44.62
2023-03-16T12:54:25.345Z,44.42
2023-03-16T12:57:05.554Z,43.16
2023-03-16T12:59:50.618Z,42.87
2023-03-16T13:02:29.773Z,43.90
2023-03-16T13:05:10.591Z,44.39
2023-03-16T13:07:48.903Z,43.25
2023-03-16T13:10:21.053Z,44.31
2023-03-16T13:12:52.682Z,44.44
2023-03-16T13:15:29.967Z,43.00
2023-03-16T13:18:22.875Z,43.39
2023-03-16T13:20:58.451Z,43.51
2023-03-16T13:23:49.201Z,43.83
2023-03-16T13:26:32.268Z,44.27
2023-03-16T13:29:18.543Z,43.85
2023-03-16T13:31:48.406Z,44.95
2023-03-16T13:34:30.589Z,43.36
2023-03-16T13:37:04.134Z,42.34
2023-03-16T13:40:02.027Z,42.02
2023-03-16T13:42:33.375Z,40.97
2023-03-16T13:45:32.896Z,39.96
2023-03-16T13:48:05.538Z,40.12
2023-03-16T13:50:54.801Z,42.52
2023-03-16T13:53:31.597Z,40.80
2023-03-16T13:56:02.652Z,37.54
2023-03-16T13:58:37.843Z,39.55
2023-03-16T14:01:32.231Z,40.83
2023-03-16T14:04:08.873Z,39.77
2023-03-16T14:06:37.726Z,38.42
2023-03-16T14:09:14.043Z,38.85
2023-03-16T14:11:44.512Z,40.03
2023-03-16T14:14:25.184Z,41.97
2023-03-16T14:16:54.730Z,40.92
2023-03-16T14:19:32.237Z,40.40
2023-03-16T14:22:06.959Z,39.31
2023-03-16T14:24:39.284Z,38.26
2023-03-16T14:27:29.468Z,39.48
2023-03-16T14:30:18.246Z,40.78
2023-03-16T14:33:24.764Z,40.79
2023-03-16T14:35:59.411Z,40.70
2023-03-16T14:38:32.872Z,41.43
2023-03-16T14:41:17.073Z,38.44
2023-03-16T14:43:49.477Z,37.49
2023-03-16T14:46:31.279Z,37.87
2023-03-16T14:49:30.472Z,36.08
2023-03-16T14:52:27.529Z,35.21
2023-03-16T14:54:55.543Z,36.40
2023-03-16T14:57:25.963Z,38.54
2023-03-16T14:59:54.823Z,35.73
2023-03-16T15:02:29.879Z,34.81
2023-03-16T15:05:01.122Z,34.99
2023-03-16T15:07:37.892Z,35.49
2023-03-16T15:10:15.281Z,35.08
2023-03-16T15:12:50.556Z,35.69
2023-03-16T15:15:27.388Z,34.77
2023-03-16T15:17:55.274Z,34.77
2023-03-16T15:20:31.724Z,34.77
2023-03-16T15:23:01.714Z,38.83
2023-03-16T15:25:38.529Z,39.48
2023-03-16T15:28:21.382Z,38.79
2023-03-16T15:30:53.536Z,40.07
2023-03-16T15:33:22.201Z,39.27
2023-03-16T15:35:52.262Z,39.91
2023-03-16T15:38:36.112Z,40.79
2023-03-16T15:41:04.266Z,40.01
2023-03-16T15:43:32.259Z,39.49
2023-03-16T15:46:00.193Z,39.17
2023-03-16T15:48:28.097Z,39.23
2023-03-16T15:51:08.967Z,35.90
2023-03-16T15:53:43.451Z,36.17
2023-03-16T15:56:18.447Z,36.48
2023-03-16T15:58:47.035Z,37.10
2023-03-16T16:01:27.107Z,39.36
2023-03-16T16:03:56.049Z,41.06
2023-03-16T16:06:24.268Z,41.10
2023-03-16T16:08:52.288Z,41.70
2023-03-16T16:11:28.265Z,42.01
2023-03-16T16:13:58.117Z,43.07
2023-03-16T16:16:29.172Z,43.42
2023-03-16T16:18:58.108Z,43.75
2023-03-16T16:21:30.839Z,44.09
2023-03-16T16:23:59.104Z,45.03
2023-03-16T16:26:48.913Z,44.39
2023-03-16T16:29:22.718Z,44.81
2023-03-16T16:31:52.067Z,44.97
2023-03-16T16:34:25.070Z,45.59
2023-03-16T16:36:56.038Z,45.65
2023-03-16T16:39:24.546Z,45.73
2023-03-16T16:41:55.273Z,45.91
2023-03-16T16:44:33.838Z,46.30
2023-03-16T16:47:03.501Z,46.42
2023-03-16T16:49:35.053Z,46.97
2023-03-16T16:52:04.271Z,46.88
2023-03-16T16:54:32.285Z,46.84
2023-03-16T16:57:01.527Z,46.98
2023-03-16T16:59:37.567Z,47.01
2023-03-16T17:02:40.442Z,47.12
2023-03-16T17:05:45.643Z,46.99
2023-03-16T17:08:19.072Z,47.46
2023-03-16T17:10:47.841Z,47.74
2023-03-16T17:13:33.326Z,48.20
2023-03-16T17:16:01.416Z,48.69
2023-03-16T17:18:29.922Z,50.11
2023-03-16T17:20:57.884Z,51.05
2023-03-16T17:23:34.908Z,52.23
2023-03-16T17:26:20.989Z,52.68
2023-03-16T17:29:03.119Z,52.68
2023-03-16T17:31:38.915Z,52.45
2023-03-16T17:34:17.336Z,52.38
2023-03-16T17:36:46.873Z,51.96
2023-03-16T17:39:27.246Z,51.90
2023-03-16T17:42:12.134Z,52.84
2023-03-16T17:44:47.329Z,53.12
2023-03-16T17:47:25.252Z,53.13
2023-03-16T17:49:54.226Z,53.54
2023-03-16T17:52:25.815Z,53.74
2023-03-16T17:55:00.368Z,54.36
2023-03-16T17:57:32.574Z,55.14
2023-03-16T18:00:02.739Z,55.55
2023-03-16T18:02:58.696Z,55.96
2023-03-16T18:05:33.386Z,56.27
2023-03-16T18:08:16.218Z,57.93
2023-03-16T18:10:46.021Z,58.79
2023-03-16T18:13:28.001Z,58.17
2023-03-16T18:15:57.194Z,58.41
2023-03-16T18:18:32.819Z,58.91
2023-03-16T18:21:01.893Z,58.97
2023-03-16T18:23:34.569Z,59.15
2023-03-16T18:26:03.421Z,59.29
2023-03-16T18:28:33.977Z,59.80
2023-03-16T18:31:05.241Z,60.45
2023-03-16T18:33:43.815Z,60.82
2023-03-16T18:36:22.052Z,61.55
2023-03-16T18:38:52.695Z,61.32
2023-03-16T18:41:31.720Z,61.92
2023-03-16T18:44:06.029Z,62.16
2023-03-16T18:46:37.279Z,63.08
2023-03-16T18:49:22.804Z,63.75
2023-03-16T18:51:54.525Z,63.69
2023-03-16T18:54:32.693Z,63.52
2023-03-16T18:57:04.250Z,63.99
2023-03-16T18:59:32.613Z,63.91
2023-03-16T19:02:00.911Z,64.37
2023-03-16T19:04:32.858Z,64.53
2023-03-16T19:07:21.275Z,64.29
2023-03-16T19:09:49.318Z,64.53
2023-03-16T19:12:18.728Z,64.93
2023-03-16T19:14:47.516Z,65.44
2023-03-16T19:17:16.335Z,64.80
2023-03-16T19:19:44.173Z,65.08
2023-03-16T19:22:21.248Z,65.10
2023-03-16T19:24:54.113Z,65.24
2023-03-16T19:27:26.993Z,65.91
2023-03-16T19:29:55.376Z,66.75
2023-03-16T19:32:23.405Z,66.95
2023-03-16T19:34:52.011Z,66.85
2023-03-16T19:37:20.733Z,67.16
2023-03-16T19:39:48.954Z,67.30
2023-03-16T19:42:30.209Z,66.90
2023-03-16T19:44:58.202Z,66.98
2023-03-16T19:47:36.643Z,67.00
2023-03-16T19:50:18.043Z,67.21
2023-03-16T19:52:46.965Z,67.70
2023-03-16T19:55:19.768Z,67.67
2023-03-16T19:57:52.819Z,67.99
2023-03-16T20:00:26.569Z,68.69
2023-03-16T20:02:55.992Z,69.04
2023-03-16T20:05:30.209Z,68.92
2023-03-16T20:08:00.873Z,68.87
2023-03-16T20:10:32.465Z,69.00
2023-03-16T20:13:01.667Z,69.06
2023-03-16T20:15:33.498Z,69.28
2023-03-16T20:18:02.241Z,69.25
2023-03-16T20:20:37.496Z,68.92
2023-03-16T20:23:23.092Z,69.40
2023-03-16T20:25:54.693Z,69.04
2023-03-16T20:28:30.310Z,69.21
2023-03-16T20:31:00.620Z,69.28
2023-03-16T20:33:34.340Z,69.47
2023-03-16T20:36:02.466Z,69.70
2023-03-16T20:38:30.902Z,69.34
2023-03-16T20:40:59.043Z,69.34
2023-03-16T20:43:32.714Z,69.54
2023-03-16T20:46:03.848Z,70.26
2023-03-16T20:48:34.302Z,69.99
2023-03-16T20:51:02.673Z,69.90
2023-03-16T20:53:30.627Z,70.20
2023-03-16T20:55:58.603Z,70.27
2023-03-16T20:58:32.527Z,70.11
2023-03-16T21:01:02.041Z,70.32
2023-03-16T21:03:33.327Z,70.29
2023-03-16T21:06:01.422Z,70.46
2023-03-16T21:08:29.620Z,69.96
2023-03-16T21:10:59.731Z,70.34
2023-03-16T21:13:33.704Z,70.34
2023-03-16T21:16:03.448Z,70.41
2023-03-16T21:18:31.507Z,70.64
2023-03-16T21:20:59.487Z,70.49
2023-03-16T21:23:27.441Z,70.52
2023-03-16T21:26:00.549Z,70.41
2023-03-16T21:28:32.391Z,70.47
2023-03-16T21:31:02.671Z,70.40
2023-03-16T21:33:41.693Z,70.65
2023-03-16T21:36:20.611Z,70.78
2023-03-16T21:38:51.471Z,70.74
2023-03-16T21:41:20.124Z,71.15
2023-03-16T21:43:49.971Z,71.59
2023-03-16T21:46:22.360Z,72.06
2023-03-16T21:48:54.664Z,71.80
2023-03-16T21:51:30.091Z,71.41
2023-03-16T21:53:58.851Z,71.71
2023-03-16T21:56:30.186Z,71.73
2023-03-16T21:58:59.692Z,71.62
2023-03-16T22:01:31.570Z,71.57
2023-03-16T22:04:15.911Z,71.82
2023-03-16T22:06:47.916Z,71.54
2023-03-16T22:09:22.444Z,71.53
2023-03-16T22:11:50.784Z,72.06
2023-03-16T22:14:18.665Z,71.90
2023-03-16T22:16:47.893Z,72.12
2023-03-16T22:19:18.133Z,71.82
2023-03-16T22:21:50.332Z,71.85
2023-03-16T22:24:23.501Z,72.11
2023-03-16T22:26:54.710Z,72.11
2023-03-16T22:29:28.930Z,75.23
2023-03-16T22:32:07.469Z,74.10
2023-03-16T22:34:49.440Z,71.96
2023-03-16T22:37:23.369Z,71.69
2023-03-16T22:39:52.968Z,71.74
2023-03-16T22:42:39.017Z,71.96
2023-03-16T22:45:21.752Z,73.17
2023-03-16T22:47:50.692Z,72.11
2023-03-16T22:50:20.657Z,71.69
2023-03-16T22:52:53.075Z,71.45
2023-03-16T22:55:26.923Z,71.51
2023-03-16T22:58:29.567Z,71.50
2023-03-16T23:01:36.548Z,70.97
2023-03-16T23:04:20.820Z,71.14
2023-03-16T23:06:52.569Z,71.19
2023-03-16T23:09:22.505Z,71.21
2023-03-16T23:11:55.477Z,71.41
2023-03-16T23:14:36.912Z,71.50
2023-03-16T23:17:17.143Z,71.63
2023-03-16T23:19:48.117Z,71.57
2023-03-16T23:22:16.241Z,72.33
2023-03-16T23:24:44.172Z,72.64
2023-03-16T23:27:22.340Z,72.31
2023-03-16T23:29:50.249Z,72.53
2023-03-16T23:32:18.220Z,73.13
2023-03-16T23:34:46.329Z,73.29
2023-03-16T23:37:14.291Z,72.58
2023-03-16T23:39:42.323Z,72.44
2023-03-16T23:42:10.382Z,72.14
2023-03-16T23:44:38.589Z,71.78
2023-03-16T23:47:07.065Z,71.61
2023-03-16T23:49:38.605Z,71.67
2023-03-16T23:52:12.048Z,71.60
2023-03-16T23:54:40.120Z,71.51
2023-03-16T23:57:09.067Z,71.38
2023-03-16T23:59:37.016Z,71.40
